Time;durP1;ratioP1;P1;durP2;ratioP2;P2;SDS_P1;SDS_P2;PMS_P1;PMS_P2;Temp;Humidity;BMP_temperature;BMP_pressure;BME280_temperature;BME280_humidity;BME280_pressure;Samples;Min_cycle;Max_cycle;Signal;HPM_P1;HPM_P2
2022/08/14 00:02:23;;;;;;;7.97;6.40;;;24.80;1.00;;;;;;5083565;28;20678;-74
2022/08/14 00:04:48;;;;;;;8.73;6.03;;;24.70;1.00;;;;;;5085323;28;20475;-74
2022/08/14 00:07:14;;;;;;;6.83;6.13;;;24.70;1.00;;;;;;5088953;28;20852;-75
2022/08/14 00:09:43;;;;;;;7.43;6.53;;;24.70;1.00;;;;;;5068411;28;20171;-75
2022/08/14 00:12:09;;;;;;;6.80;5.93;;;24.60;1.00;;;;;;5079994;28;20225;-75
2022/08/14 00:14:35;;;;;;;8.00;6.50;;;24.60;1.00;;;;;;5087775;28;20456;-75
2022/08/14 00:17:01;;;;;;;6.40;5.47;;;24.60;1.00;;;;;;5081794;28;20246;-74
2022/08/14 00:19:27;;;;;;;7.70;6.50;;;24.50;1.00;;;;;;5095104;28;20415;-74
2022/08/14 00:21:53;;;;;;;9.50;6.27;;;24.50;1.00;;;;;;5087677;28;20445;-74
2022/08/14 00:24:19;;;;;;;14.33;6.87;;;24.50;1.00;;;;;;5076142;28;20700;-74
2022/08/14 00:26:45;;;;;;;9.77;6.90;;;24.40;1.00;;;;;;5080400;28;20198;-74
2022/08/14 00:29:10;;;;;;;11.03;6.00;;;24.40;1.00;;;;;;5087809;28;20425;-73
2022/08/14 00:31:36;;;;;;;8.43;6.00;;;24.40;1.00;;;;;;5085132;28;20801;-73
2022/08/14 00:34:02;;;;;;;6.77;5.83;;;24.40;1.00;;;;;;5096720;28;20174;-74
2022/08/14 00:36:28;;;;;;;7.87;6.27;;;24.40;1.00;;;;;;5081855;28;20672;-74
2022/08/14 00:38:54;;;;;;;6.70;6.00;;;24.30;1.00;;;;;;5094456;28;20428;-75
2022/08/14 00:41:20;;;;;;;9.53;6.70;;;24.30;1.00;;;;;;5084030;28;20187;-75
2022/08/14 00:43:46;;;;;;;7.63;6.10;;;24.30;1.00;;;;;;5091425;28;20472;-74
2022/08/14 00:46:11;;;;;;;8.37;6.37;;;24.30;1.00;;;;;;5088561;28;20171;-74
2022/08/14 00:48:38;;;;;;;6.97;6.27;;;24.20;1.00;;;;;;5098209;28;20498;-74
2022/08/14 00:51:07;;;;;;;8.80;6.33;;;24.20;1.00;;;;;;5087214;28;20182;-75
2022/08/14 00:53:34;;;;;;;7.70;6.70;;;24.20;1.00;;;;;;5083877;28;20485;-74
2022/08/14 00:56:02;;;;;;;6.63;5.90;;;24.10;1.00;;;;;;5080857;28;20434;-75
2022/08/14 00:58:30;;;;;;;7.63;6.43;;;24.10;1.00;;;;;;5087481;28;20442;-75
2022/08/14 01:01:07;;;;;;;8.40;7.10;;;24.10;1.00;;;;;;5087144;28;20764;-74
2022/08/14 01:03:36;;;;;;;6.73;6.00;;;24.00;1.00;;;;;;5087168;28;20998;-74
2022/08/14 01:06:03;;;;;;;8.70;6.77;;;24.00;1.00;;;;;;5072502;28;20438;-74
2022/08/14 01:08:30;;;;;;;8.73;6.50;;;24.00;1.00;;;;;;5087745;28;20538;-74
2022/08/14 01:10:57;;;;;;;7.87;6.90;;;24.00;1.00;;;;;;5081141;28;21721;-74
2022/08/14 01:13:35;;;;;;;7.50;6.80;;;24.00;1.00;;;;;;5091769;28;20824;-74
2022/08/14 01:16:04;;;;;;;7.67;6.87;;;23.90;1.00;;;;;;5084248;28;20470;-74
2022/08/14 01:21:44;;;;;;;9.80;6.80;;;23.90;1.00;;;;;;5086299;28;20533;-74
2022/08/14 01:24:13;;;;;;;9.90;6.97;;;23.90;1.00;;;;;;5087525;28;20476;-74
2022/08/14 01:26:39;;;;;;;8.57;7.47;;;24.00;1.00;;;;;;5084374;28;20470;-75
2022/08/14 01:29:05;;;;;;;13.13;7.67;;;23.80;1.00;;;;;;5091045;28;20508;-74
2022/08/14 01:31:45;;;;;;;8.67;6.93;;;23.90;1.00;;;;;;5089692;28;20979;-75
2022/08/14 01:34:11;;;;;;;8.23;7.40;;;23.80;1.00;;;;;;5085385;28;20565;-74
2022/08/14 01:36:37;;;;;;;8.47;7.47;;;23.90;1.00;;;;;;5090231;28;20536;-72
2022/08/14 01:39:06;;;;;;;7.70;6.90;;;23.70;1.00;;;;;;5084626;28;20657;-74
2022/08/14 01:41:34;;;;;;;8.47;7.57;;;23.70;1.00;;;;;;5090327;28;20418;-73
2022/08/14 01:44:12;;;;;;;7.77;6.67;;;23.70;1.00;;;;;;5083046;28;20493;-74
2022/08/14 01:46:40;;;;;;;11.87;7.80;;;23.70;1.00;;;;;;5089935;28;20416;-74
2022/08/14 01:49:08;;;;;;;10.43;7.47;;;23.70;1.00;;;;;;5083819;28;20436;-74
2022/08/14 01:51:35;;;;;;;8.33;7.30;;;23.70;1.00;;;;;;5090556;28;20413;-74
2022/08/14 01:54:05;;;;;;;12.80;7.70;;;23.60;1.00;;;;;;5082791;28;20440;-74
2022/08/14 01:56:39;;;;;;;9.97;8.30;;;23.60;1.00;;;;;;5081440;28;20442;-74
2022/08/14 01:59:18;;;;;;;8.50;7.13;;;23.60;1.00;;;;;;5082753;28;20506;-75
2022/08/14 02:01:45;;;;;;;8.67;7.77;;;23.60;1.00;;;;;;5080412;28;20966;-74
2022/08/14 02:04:11;;;;;;;9.13;8.00;;;23.70;1.00;;;;;;5089571;28;20461;-74
2022/08/14 02:06:37;;;;;;;8.73;7.37;;;23.50;1.00;;;;;;5083323;28;20430;-74
2022/08/14 02:09:07;;;;;;;10.60;7.97;;;23.50;1.00;;;;;;5091183;28;20179;-74
2022/08/14 02:11:34;;;;;;;9.30;7.50;;;23.50;1.00;;;;;;5083104;28;20456;-74
2022/08/14 02:14:09;;;;;;;10.60;7.20;;;23.50;1.00;;;;;;5088370;28;20520;-75
2022/08/14 02:16:40;;;;;;;10.13;8.10;;;23.50;1.00;;;;;;5082852;28;20464;-74
2022/08/14 02:19:08;;;;;;;8.53;7.13;;;23.50;1.00;;;;;;5090483;28;20412;-75
2022/08/14 02:21:35;;;;;;;8.53;7.60;;;23.40;1.00;;;;;;5084860;28;20434;-74
2022/08/14 02:24:03;;;;;;;10.27;7.40;;;23.40;1.00;;;;;;5085082;28;20460;-74
2022/08/14 02:26:33;;;;;;;9.20;7.70;;;23.40;1.00;;;;;;5077466;28;21011;-74
2022/08/14 02:29:05;;;;;;;9.20;7.83;;;23.40;1.00;;;;;;5090538;28;20437;-74
2022/08/14 02:31:33;;;;;;;10.70;8.47;;;23.40;1.00;;;;;;5084278;28;20431;-74
2022/08/14 02:34:04;;;;;;;9.80;8.10;;;23.40;1.00;;;;;;5089973;28;20412;-74
2022/08/14 02:36:29;;;;;;;8.20;7.30;;;23.30;1.00;;;;;;5087263;28;20942;-74
2022/08/14 02:38:56;;;;;;;8.90;8.00;;;22.20;1.00;;;;;;5090256;28;20417;-74
2022/08/14 02:41:22;;;;;;;9.73;7.90;;;23.30;1.00;;;;;;5087084;28;20273;-74
2022/08/14 02:43:47;;;;;;;8.53;7.63;;;23.30;1.00;;;;;;5089979;28;20467;-74
2022/08/14 02:46:15;;;;;;;9.50;8.50;;;23.30;1.00;;;;;;5080225;28;20429;-74
2022/08/14 02:48:41;;;;;;;10.00;8.43;;;23.20;1.00;;;;;;5090510;28;20159;-74
2022/08/14 02:51:14;;;;;;;10.00;8.50;;;23.20;1.00;;;;;;5080182;28;20421;-73
2022/08/14 02:53:43;;;;;;;10.07;8.43;;;23.20;1.00;;;;;;5087760;28;20547;-74
2022/08/14 02:56:10;;;;;;;8.97;8.07;;;23.10;1.00;;;;;;5087305;28;20426;-74
2022/08/14 02:58:39;;;;;;;10.10;7.67;;;23.10;1.00;;;;;;5089122;28;20413;-74
2022/08/14 03:01:07;;;;;;;10.20;8.33;;;23.10;1.00;;;;;;5082291;28;20936;-73
2022/08/14 03:03:35;;;;;;;8.90;8.00;;;23.00;1.00;;;;;;5086026;28;20534;-74
2022/08/14 03:06:01;;;;;;;11.67;8.57;;;23.00;1.00;;;;;;5084940;28;21082;-74
2022/08/14 03:08:30;;;;;;;9.20;8.27;;;23.00;1.00;;;;;;5085642;28;20417;-74
2022/08/14 03:10:57;;;;;;;8.80;7.90;;;23.00;1.00;;;;;;5083599;28;20935;-73
2022/08/14 03:13:23;;;;;;;9.23;8.30;;;23.00;1.00;;;;;;5089742;28;20433;-73
2022/08/14 03:15:53;;;;;;;10.33;8.67;;;22.90;1.00;;;;;;5083799;28;20526;-74
2022/08/14 03:18:24;;;;;;;9.37;8.03;;;22.90;1.00;;;;;;5089736;28;20198;-74
2022/08/14 03:20:49;;;;;;;8.80;7.90;;;22.90;1.00;;;;;;5085593;28;20441;-74
2022/08/14 03:23:16;;;;;;;11.93;7.90;;;22.90;1.00;;;;;;5088285;28;20467;-74
2022/08/14 03:25:42;;;;;;;18.60;7.80;;;22.90;1.00;;;;;;5083590;28;20511;-74
2022/08/14 03:28:09;;;;;;;9.20;7.60;;;22.90;1.00;;;;;;5081725;28;20524;-74
2022/08/14 03:30:36;;;;;;;10.00;8.83;;;22.80;1.00;;;;;;5084984;28;20507;-74
2022/08/14 03:33:02;;;;;;;9.80;8.37;;;22.80;1.00;;;;;;5080165;28;20486;-74
2022/08/14 03:35:29;;;;;;;8.57;7.67;;;22.80;1.00;;;;;;5080082;28;20448;-73
2022/08/14 03:37:54;;;;;;;8.50;7.57;;;22.80;1.00;;;;;;5089217;28;21076;-74
2022/08/14 03:40:21;;;;;;;8.90;8.00;;;22.80;1.00;;;;;;5084878;28;20528;-74
2022/08/14 03:42:47;;;;;;;9.90;7.60;;;22.80;1.00;;;;;;5088273;28;20277;-74
2022/08/14 03:45:13;;;;;;;9.80;7.53;;;22.80;1.00;;;;;;5080695;28;20437;-74
2022/08/14 03:47:39;;;;;;;8.57;7.67;;;22.80;1.00;;;;;;5088165;28;21002;-74
2022/08/14 03:50:09;;;;;;;8.60;7.63;;;22.90;1.00;;;;;;5083511;28;20522;-74
2022/08/14 03:52:36;;;;;;;8.70;7.80;;;22.80;1.00;;;;;;5087841;28;20472;-74
2022/08/14 03:55:06;;;;;;;10.43;8.20;;;22.80;1.00;;;;;;5082303;28;20486;-73
2022/08/14 03:57:34;;;;;;;8.60;7.70;;;22.80;1.00;;;;;;5072903;28;20431;-73
2022/08/14 04:00:07;;;;;;;9.83;7.97;;;22.90;1.00;;;;;;5072142;28;20947;-73
2022/08/14 04:02:33;;;;;;;8.53;7.60;;;22.80;1.00;;;;;;5083432;28;20780;-73
2022/08/14 04:04:58;;;;;;;12.27;7.40;;;22.80;1.00;;;;;;5086886;28;20405;-73
2022/08/14 04:07:24;;;;;;;9.10;7.80;;;22.80;1.00;;;;;;5083631;28;20182;-74
2022/08/14 04:09:50;;;;;;;11.50;7.73;;;22.80;1.00;;;;;;5084997;28;20164;-73
2022/08/14 04:12:18;;;;;;;9.17;7.87;;;22.80;1.00;;;;;;5081459;28;20203;-73
2022/08/14 04:14:44;;;;;;;9.07;8.17;;;22.70;1.00;;;;;;5087293;28;20185;-74
2022/08/14 04:17:10;;;;;;;9.50;7.60;;;22.70;1.00;;;;;;5081573;28;20445;-73
2022/08/14 04:19:36;;;;;;;9.80;7.77;;;22.70;1.00;;;;;;5086281;28;20187;-73
2022/08/14 04:22:02;;;;;;;11.20;7.50;;;22.70;1.00;;;;;;5082655;28;20630;-73
2022/08/14 04:24:28;;;;;;;11.17;8.20;;;22.90;1.00;;;;;;5088499;28;20463;-73
2022/08/14 04:26:53;;;;;;;9.00;7.70;;;22.70;1.00;;;;;;5084005;28;20194;-73
2022/08/14 04:29:19;;;;;;;8.33;7.43;;;22.60;1.00;;;;;;5076073;28;20172;-73
2022/08/14 04:31:45;;;;;;;9.67;8.20;;;22.50;1.00;;;;;;5076864;28;20291;-73
2022/08/14 04:34:11;;;;;;;10.90;7.80;;;22.40;1.00;;;;;;5088352;28;20238;-73
2022/08/14 04:43:34;;;;;;;11.10;8.50;;;22.20;1.00;;;;;;5084298;28;20772;-73
2022/08/14 04:44:51;;;;;;;9.17;8.27;;;22.10;1.00;;;;;;5084719;28;20935;-73
2022/08/14 04:50:02;;;;;;;10.60;8.93;;;22.00;1.00;;;;;;5067638;28;20186;-73
2022/08/14 04:52:28;;;;;;;9.50;8.50;;;22.00;1.00;;;;;;5083008;28;20453;-73
2022/08/14 04:54:53;;;;;;;11.93;8.13;;;22.00;1.00;;;;;;5086990;28;20436;-73
2022/08/14 04:57:19;;;;;;;9.53;7.70;;;21.90;1.00;;;;;;5080326;28;20171;-73
2022/08/14 04:59:45;;;;;;;11.50;8.27;;;21.80;1.00;;;;;;5087409;28;20190;-73
2022/08/14 05:02:12;;;;;;;9.70;8.70;;;21.70;1.00;;;;;;5078852;28;20211;-73
2022/08/14 05:04:38;;;;;;;11.50;8.87;;;21.70;1.00;;;;;;5088086;28;20195;-73
2022/08/14 05:07:03;;;;;;;10.47;8.10;;;21.70;1.00;;;;;;5080549;28;20425;-73
2022/08/14 05:09:29;;;;;;;9.73;8.33;;;21.70;1.00;;;;;;5082424;28;20180;-73
2022/08/14 05:11:54;;;;;;;9.80;7.90;;;22.00;1.00;;;;;;5078440;28;20199;-73
2022/08/14 05:14:21;;;;;;;10.17;8.70;;;21.90;1.00;;;;;;5086057;28;20175;-73
2022/08/14 05:16:46;;;;;;;10.70;8.50;;;21.90;1.00;;;;;;5084436;28;20202;-73
2022/08/14 05:19:13;;;;;;;9.60;8.60;;;21.90;1.00;;;;;;5086162;28;20413;-73
2022/08/14 05:21:40;;;;;;;11.20;9.30;;;22.00;1.00;;;;;;5082970;28;20184;-73
2022/08/14 05:24:06;;;;;;;10.70;9.60;;;22.00;1.00;;;;;;5089474;28;20456;-73
2022/08/14 05:26:32;;;;;;;10.20;9.13;;;22.10;1.00;;;;;;5079622;28;20616;-73
2022/08/14 05:28:58;;;;;;;16.10;9.80;;;22.10;1.00;;;;;;5090692;28;20429;-73
2022/08/14 05:31:24;;;;;;;10.60;8.90;;;22.10;1.00;;;;;;5094103;28;20496;-73
2022/08/14 05:33:49;;;;;;;10.93;9.23;;;22.20;1.00;;;;;;5091891;28;20245;-72
2022/08/14 05:36:15;;;;;;;12.20;8.80;;;22.20;1.00;;;;;;5084187;28;20589;-73
2022/08/14 05:38:43;;;;;;;12.90;9.37;;;22.30;1.00;;;;;;5079545;28;20262;-73
2022/08/14 05:41:16;;;;;;;14.27;9.07;;;22.40;1.00;;;;;;5090097;28;20171;-73
2022/08/14 05:43:44;;;;;;;11.23;9.43;;;22.50;1.00;;;;;;5088081;28;20484;-73
2022/08/14 05:46:17;;;;;;;12.20;9.30;;;22.50;1.00;;;;;;5088839;28;20839;-74
2022/08/14 05:48:50;;;;;;;10.70;9.60;;;22.50;1.00;;;;;;5082652;28;20429;-73
2022/08/14 05:51:16;;;;;;;12.17;9.73;;;22.60;1.00;;;;;;5090385;28;20423;-74
2022/08/14 05:53:42;;;;;;;13.80;9.60;;;22.60;1.00;;;;;;5086240;28;20824;-73
2022/08/14 05:56:07;;;;;;;10.80;9.70;;;22.70;1.00;;;;;;5086193;28;20262;-74
2022/08/14 05:58:33;;;;;;;15.60;9.73;;;22.80;1.00;;;;;;5087648;28;20207;-73
2022/08/14 06:00:58;;;;;;;11.27;9.67;;;22.80;1.00;;;;;;5086755;28;20183;-74
2022/08/14 06:03:24;;;;;;;9.77;8.73;;;22.80;1.00;;;;;;5091313;28;20298;-74
2022/08/14 06:05:52;;;;;;;11.30;9.33;;;22.90;1.00;;;;;;5086750;28;20214;-73
2022/08/14 06:08:29;;;;;;;10.93;9.70;;;23.00;1.00;;;;;;5083296;28;20254;-73
2022/08/14 06:11:01;;;;;;;12.70;10.30;;;23.00;1.00;;;;;;5086762;28;20409;-73
2022/08/14 06:13:35;;;;;;;11.60;10.40;;;23.10;1.00;;;;;;5087977;28;20465;-74
2022/08/14 06:16:00;;;;;;;15.80;10.10;;;23.20;1.00;;;;;;5072819;28;20461;-74
2022/08/14 06:18:26;;;;;;;16.23;9.97;;;23.30;1.00;;;;;;5091286;28;20578;-74
2022/08/14 06:20:53;;;;;;;11.40;9.40;;;23.30;1.00;;;;;;5082503;28;20213;-74
2022/08/14 06:23:18;;;;;;;17.57;9.83;;;23.30;1.00;;;;;;5084097;28;20229;-74
2022/08/14 06:25:44;;;;;;;10.70;9.60;;;23.30;1.00;;;;;;5081343;28;20431;-73
2022/08/14 06:28:22;;;;;;;11.33;10.13;;;23.40;1.00;;;;;;5084019;28;20195;-74
2022/08/14 06:30:47;;;;;;;12.60;10.50;;;23.50;1.00;;;;;;5084925;28;20167;-73
2022/08/14 06:33:14;;;;;;;14.10;10.37;;;23.50;1.00;;;;;;5090056;28;20486;-74
2022/08/14 06:35:40;;;;;;;14.00;10.10;;;23.50;1.00;;;;;;5084998;28;20694;-74
2022/08/14 06:38:06;;;;;;;10.63;9.53;;;23.60;1.00;;;;;;5081096;28;20421;-74
2022/08/14 06:40:35;;;;;;;13.03;10.93;;;23.80;1.00;;;;;;5084209;28;20561;-73
2022/08/14 06:43:03;;;;;;;11.30;9.50;;;24.00;1.00;;;;;;5085593;28;20192;-73
2022/08/14 06:45:30;;;;;;;14.30;10.07;;;24.30;1.00;;;;;;5085397;28;20914;-74
2022/08/14 06:47:55;;;;;;;15.90;9.43;;;24.40;1.00;;;;;;5085372;28;20448;-73
2022/08/14 06:50:22;;;;;;;9.90;8.90;;;24.60;1.00;;;;;;5077253;28;20454;-73
2022/08/14 06:52:48;;;;;;;10.40;8.80;;;24.80;1.00;;;;;;5078995;28;20606;-74
2022/08/14 06:55:18;;;;;;;9.80;8.77;;;24.90;1.00;;;;;;5077121;28;20442;-74
2022/08/14 06:57:49;;;;;;;11.17;8.97;;;25.20;1.00;;;;;;5088245;28;20892;-74
2022/08/14 07:00:16;;;;;;;12.30;9.43;;;25.40;1.00;;;;;;5085226;28;20479;-74
2022/08/14 07:05:45;;;;;;;9.90;8.77;;;25.80;1.00;;;;;;5089245;28;20515;-74
2022/08/14 07:08:25;;;;;;;10.27;8.43;;;25.80;1.00;;;;;;5069249;28;20421;-74
2022/08/14 07:10:53;;;;;;;10.33;8.60;;;26.00;1.00;;;;;;5076867;28;20422;-73
2022/08/14 07:13:19;;;;;;;13.50;8.47;;;26.10;1.00;;;;;;5083719;28;20978;-74
2022/08/14 07:15:49;;;;;;;9.73;8.73;;;26.40;1.00;;;;;;5086172;28;20433;-74
2022/08/14 07:18:20;;;;;;;9.90;8.30;;;26.70;1.00;;;;;;5082992;28;20183;-74
2022/08/14 07:20:46;;;;;;;9.67;8.50;;;26.90;1.00;;;;;;5087627;28;20206;-74
2022/08/14 07:23:12;;;;;;;9.37;8.40;;;27.10;1.00;;;;;;5073774;28;20268;-74
2022/08/14 07:25:39;;;;;;;12.00;7.87;;;27.20;1.00;;;;;;5088516;28;20176;-74
2022/08/14 07:28:35;;;;;;;9.03;7.73;;;27.30;1.00;;;;;;5085810;28;20192;-74
2022/08/14 07:31:04;;;;;;;11.00;8.80;;;27.50;1.00;;;;;;5076095;28;20672;-72
2022/08/14 07:33:36;;;;;;;8.80;7.97;;;27.70;1.00;;;;;;5083766;28;20261;-74
2022/08/14 07:36:05;;;;;;;8.77;7.87;;;27.90;1.00;;;;;;5081949;28;20432;-76
2022/08/14 07:38:31;;;;;;;17.53;8.27;;;28.00;1.00;;;;;;5088929;28;20417;-76
2022/08/14 07:40:58;;;;;;;8.43;7.43;;;27.90;1.00;;;;;;5080093;28;20180;-76
2022/08/14 07:43:24;;;;;;;10.00;7.87;;;27.80;1.00;;;;;;5083635;28;20724;-76
2022/08/14 07:45:50;;;;;;;8.30;7.30;;;27.80;1.00;;;;;;5074129;28;20557;-76
2022/08/14 07:48:15;;;;;;;8.30;7.50;;;27.70;1.00;;;;;;5088902;28;20584;-76
2022/08/14 07:50:42;;;;;;;8.97;7.73;;;27.50;1.00;;;;;;5080843;28;20592;-75
2022/08/14 07:53:07;;;;;;;10.63;8.07;;;27.50;1.00;;;;;;5077485;28;20573;-76
2022/08/14 07:55:34;;;;;;;8.13;6.90;;;27.50;1.00;;;;;;5074597;28;20187;-76
2022/08/14 07:58:00;;;;;;;14.50;11.17;;;27.70;1.00;;;;;;5072791;28;20183;-76
2022/08/14 08:00:27;;;;;;;8.70;7.80;;;28.00;1.00;;;;;;5087301;28;20201;-76
2022/08/14 08:02:55;;;;;;;9.40;7.97;;;28.00;1.00;;;;;;5084535;28;20234;-76
2022/08/14 08:05:23;;;;;;;9.50;7.87;;;28.10;1.00;;;;;;5088431;28;20167;-76
2022/08/14 08:07:50;;;;;;;8.27;7.47;;;28.10;1.00;;;;;;5080158;28;20179;-77
2022/08/14 08:10:30;;;;;;;11.50;7.50;;;28.10;1.00;;;;;;5087259;28;20233;-76
2022/08/14 08:13:09;;;;;;;8.67;7.77;;;28.20;1.00;;;;;;5081477;28;20199;-76
2022/08/14 08:15:40;;;;;;;7.87;6.90;;;28.30;1.00;;;;;;5087074;28;20270;-76
2022/08/14 08:18:08;;;;;;;9.20;7.30;;;28.40;1.00;;;;;;5082409;28;20237;-76
2022/08/14 08:20:44;;;;;;;9.57;7.00;;;28.40;1.00;;;;;;5076571;28;20175;-76
2022/08/14 08:23:10;;;;;;;8.43;7.10;;;28.50;1.00;;;;;;5084303;28;20672;-76
2022/08/14 08:25:38;;;;;;;10.00;7.20;;;28.70;1.00;;;;;;5080330;28;20211;-76
2022/08/14 08:28:08;;;;;;;8.33;7.30;;;28.60;1.00;;;;;;5079478;28;20183;-76
2022/08/14 08:30:36;;;;;;;9.80;7.50;;;28.80;1.00;;;;;;5082005;28;20218;-76
2022/08/14 08:33:04;;;;;;;8.97;6.67;;;28.90;1.00;;;;;;5083649;28;20199;-76
2022/08/14 08:35:33;;;;;;;7.77;6.50;;;29.20;1.00;;;;;;5082995;28;20183;-75
2022/08/14 08:38:05;;;;;;;7.60;6.30;;;29.20;1.00;;;;;;5087792;28;20202;-76
2022/08/14 08:40:36;;;;;;;7.70;6.90;;;29.50;1.00;;;;;;5083358;28;20210;-76
2022/08/14 08:43:06;;;;;;;7.88;7.07;;;29.40;1.00;;;;;;5087737;28;20194;-76
2022/08/14 08:45:34;;;;;;;9.93;6.90;;;29.40;1.00;;;;;;5084825;28;20186;-75
2022/08/14 08:48:01;;;;;;;10.35;7.10;;;29.40;1.00;;;;;;5072820;28;20167;-76
2022/08/14 08:50:36;;;;;;;7.40;6.70;;;29.50;1.00;;;;;;5087007;28;20206;-76
2022/08/14 08:53:06;;;;;;;6.85;6.18;;;29.50;1.00;;;;;;5077753;28;20445;-75
2022/08/14 08:55:37;;;;;;;7.00;6.10;;;29.50;1.00;;;;;;5070447;28;20275;-76
2022/08/14 08:58:06;;;;;;;7.97;6.70;;;29.70;1.00;;;;;;5076497;28;20187;-76
2022/08/14 09:00:34;;;;;;;7.57;6.78;;;30.10;1.00;;;;;;5082935;28;20589;-77
2022/08/14 09:03:05;;;;;;;11.93;6.60;;;30.50;1.00;;;;;;5088258;28;20646;-76
2022/08/14 09:05:32;;;;;;;8.68;7.30;;;30.30;1.00;;;;;;5082919;28;20274;-76
2022/08/14 09:08:18;;;;;;;9.32;5.85;;;30.60;1.00;;;;;;5091164;28;20186;-76
2022/08/14 09:10:45;;;;;;;7.32;6.35;;;30.80;1.00;;;;;;5087991;28;20178;-76
2022/08/14 09:13:11;;;;;;;6.70;5.75;;;30.90;1.00;;;;;;5071078;28;20200;-76
2022/08/14 09:15:42;;;;;;;6.63;5.63;;;31.10;1.00;;;;;;5087034;28;20201;-76
2022/08/14 09:18:09;;;;;;;6.47;4.90;;;31.30;1.00;;;;;;5085416;28;20178;-76
2022/08/14 09:20:37;;;;;;;6.32;4.80;;;31.50;1.00;;;;;;5091316;28;20259;-76
2022/08/14 09:23:03;;;;;;;7.38;4.75;;;31.70;1.00;;;;;;5088357;28;20815;-75
2022/08/14 09:25:29;;;;;;;10.63;5.40;;;31.80;1.00;;;;;;5084194;28;20179;-76
2022/08/14 09:27:54;;;;;;;9.18;6.00;;;32.00;1.00;;;;;;5085108;28;20669;-76
2022/08/14 09:30:20;;;;;;;5.55;5.05;;;32.20;1.00;;;;;;5090557;28;20224;-76
2022/08/14 09:33:02;;;;;;;8.00;5.18;;;32.10;1.00;;;;;;5092392;28;20218;-76
2022/08/14 09:35:58;;;;;;;6.05;5.03;;;32.20;1.00;;;;;;5091921;28;20285;-76
2022/08/14 09:38:42;;;;;;;7.28;4.70;;;32.60;1.00;;;;;;5089305;28;20861;-76
2022/08/14 09:41:45;;;;;;;6.65;4.82;;;33.00;1.00;;;;;;5079665;28;20676;-77
2022/08/14 09:44:32;;;;;;;16.30;5.65;;;33.30;1.00;;;;;;5080977;28;20220;-77
2022/08/14 09:46:58;;;;;;;8.50;4.53;;;33.60;1.00;;;;;;5089413;28;20286;-78
2022/08/14 09:49:38;;;;;;;6.07;4.88;;;33.80;1.00;;;;;;5092607;28;20593;-79
2022/08/14 09:52:12;;;;;;;4.97;4.47;;;33.80;1.00;;;;;;5082821;28;20252;-76
2022/08/14 09:54:44;;;;;;;5.20;4.15;;;33.60;1.00;;;;;;5088814;28;20181;-77
2022/08/14 09:57:22;;;;;;;6.30;4.30;;;33.50;1.00;;;;;;5082608;28;20597;-77
2022/08/14 09:59:48;;;;;;;5.47;4.53;;;33.60;1.00;;;;;;5090034;28;20179;-77
2022/08/14 10:02:26;;;;;;;9.50;4.60;;;33.90;1.00;;;;;;5088499;28;20231;-76
2022/08/14 10:04:59;;;;;;;6.00;4.60;;;34.30;1.00;;;;;;5090516;28;20565;-76
2022/08/14 10:07:30;;;;;;;5.55;4.38;;;34.60;1.00;;;;;;5090351;28;20669;-77
2022/08/14 10:09:56;;;;;;;6.50;4.63;;;34.90;1.00;;;;;;5072716;28;20180;-77
2022/08/14 10:12:21;;;;;;;10.90;4.65;;;35.40;1.00;;;;;;5075545;28;20240;-76
2022/08/14 10:14:47;;;;;;;7.95;4.45;;;35.80;1.00;;;;;;5099014;28;20224;-77
2022/08/14 10:17:25;;;;;;;4.57;4.18;;;36.70;1.00;;;;;;5088649;28;20194;-76
2022/08/14 10:19:51;;;;;;;5.45;4.50;;;37.50;1.00;;;;;;5082179;28;20233;-76
2022/08/14 10:22:24;;;;;;;6.25;4.45;;;38.50;1.00;;;;;;5069332;28;20259;-76
2022/08/14 10:24:50;;;;;;;4.60;4.20;;;39.60;1.00;;;;;;5087623;28;20268;-77
2022/08/14 10:27:24;;;;;;;4.53;4.10;;;40.50;1.00;;;;;;5083699;28;20619;-77
2022/08/14 10:29:55;;;;;;;4.80;3.72;;;41.20;1.00;;;;;;5089220;28;20175;-77
2022/08/14 10:32:21;;;;;;;8.63;7.45;;;42.00;1.00;;;;;;5081130;28;20673;-77
2022/08/14 10:34:48;;;;;;;4.63;3.75;;;42.80;1.00;;;;;;5091811;28;20193;-77
2022/08/14 10:37:16;;;;;;;4.10;3.70;;;43.40;1.00;;;;;;5085625;28;20210;-77
2022/08/14 10:39:44;;;;;;;6.57;3.35;;;44.30;1.00;;;;;;5078785;28;20188;-78
2022/08/14 10:42:14;;;;;;;4.47;3.45;;;44.50;1.00;;;;;;5089074;28;20202;-77
2022/08/14 10:44:44;;;;;;;4.38;3.13;;;45.00;1.00;;;;;;5087879;28;20209;-77
2022/08/14 10:47:11;;;;;;;4.07;3.28;;;45.40;1.00;;;;;;5088615;28;20186;-78
2022/08/14 10:49:42;;;;;;;6.47;3.38;;;45.00;1.00;;;;;;5080140;28;20180;-77
2022/08/14 10:52:09;;;;;;;4.43;3.40;;;45.20;1.00;;;;;;5088739;28;20203;-77
2022/08/14 10:54:44;;;;;;;4.65;3.00;;;45.80;1.00;;;;;;5088285;28;20569;-77
2022/08/14 10:57:25;;;;;;;4.88;3.10;;;46.50;1.00;;;;;;5078314;28;20269;-77
2022/08/14 10:59:54;;;;;;;4.07;3.00;;;45.60;1.00;;;;;;5080727;28;20194;-78
2022/08/14 11:02:30;;;;;;;4.50;3.15;;;45.20;1.00;;;;;;5087497;28;20564;-77
2022/08/14 11:04:57;;;;;;;3.95;3.20;;;45.40;1.00;;;;;;5082127;28;20764;-77
2022/08/14 11:07:23;;;;;;;4.65;3.17;;;45.60;1.00;;;;;;5099159;28;20175;-80
2022/08/14 11:09:56;;;;;;;8.20;3.67;;;45.70;1.00;;;;;;5084257;28;20626;-79
2022/08/14 11:12:37;;;;;;;5.82;3.33;;;45.90;1.00;;;;;;5092084;28;20199;-77
2022/08/14 11:15:03;;;;;;;4.63;3.28;;;45.90;1.00;;;;;;5080700;28;20181;-78
2022/08/14 11:17:35;;;;;;;3.50;3.20;;;45.90;1.00;;;;;;5088976;28;20174;-78
2022/08/14 11:20:01;;;;;;;6.93;3.30;;;46.30;1.00;;;;;;5083897;28;20570;-78
2022/08/14 11:22:31;;;;;;;4.20;3.20;;;47.30;1.00;;;;;;5089301;28;20664;-78
2022/08/14 11:25:05;;;;;;;4.57;3.28;;;47.80;1.00;;;;;;5085643;28;20687;-78
2022/08/14 11:27:32;;;;;;;6.10;3.30;;;47.50;1.00;;;;;;5082539;28;20182;-77
2022/08/14 11:30:05;;;;;;;4.00;3.20;;;47.80;1.00;;;;;;5092248;28;20163;-78
2022/08/14 11:32:31;;;;;;;3.53;3.22;;;47.70;1.00;;;;;;5089383;28;20223;-78
2022/08/14 11:34:58;;;;;;;4.88;3.20;;;47.30;1.00;;;;;;5087499;28;20214;-78
2022/08/14 11:37:24;;;;;;;5.70;3.67;;;47.20;1.00;;;;;;5083612;28;20211;-78
2022/08/14 11:39:49;;;;;;;6.00;3.40;;;46.80;1.00;;;;;;5090608;28;20692;-78
2022/08/14 11:42:20;;;;;;;4.95;3.13;;;46.90;1.00;;;;;;5090618;28;20569;-78
2022/08/14 11:44:48;;;;;;;4.95;3.50;;;47.50;1.00;;;;;;5088568;28;20209;-78
2022/08/14 11:47:18;;;;;;;8.02;3.50;;;47.00;1.00;;;;;;5083512;28;20187;-78
2022/08/14 11:49:46;;;;;;;4.40;3.70;;;47.30;1.00;;;;;;5083654;28;20172;-78
2022/08/14 11:52:12;;;;;;;4.85;3.40;;;47.60;1.00;;;;;;5085483;28;20190;-77
2022/08/14 11:54:38;;;;;;;4.60;3.55;;;46.60;1.00;;;;;;5088488;28;20533;-78
2022/08/14 11:57:04;;;;;;;4.70;4.30;;;46.40;1.00;;;;;;5079319;28;20179;-78
2022/08/14 11:59:32;;;;;;;7.95;4.07;;;46.70;1.00;;;;;;5087498;28;20175;-77
2022/08/14 12:02:08;;;;;;;5.55;3.30;;;47.50;1.00;;;;;;5084471;28;20206;-78
2022/08/14 12:04:34;;;;;;;5.85;3.65;;;48.20;1.00;;;;;;5089506;28;20205;-79
2022/08/14 12:07:00;;;;;;;5.55;3.42;;;48.00;1.00;;;;;;5080451;28;20171;-77
2022/08/14 12:09:33;;;;;;;4.75;3.70;;;47.20;1.00;;;;;;5095013;28;20217;-76
2022/08/14 12:11:59;;;;;;;4.20;3.80;;;47.60;1.00;;;;;;5083962;28;20201;-77
2022/08/14 12:14:25;;;;;;;3.80;3.50;;;47.70;1.00;;;;;;5086853;28;20175;-78
2022/08/14 12:17:06;;;;;;;4.55;3.70;;;48.00;1.00;;;;;;5079586;28;20183;-77
2022/08/14 12:19:48;;;;;;;7.72;3.40;;;48.60;1.00;;;;;;5086304;28;20489;-77
2022/08/14 12:22:14;;;;;;;4.30;3.38;;;49.40;1.00;;;;;;5081478;28;20195;-77
2022/08/14 12:24:45;;;;;;;5.45;3.33;;;50.10;1.00;;;;;;5085708;28;20202;-77
2022/08/14 12:27:12;;;;;;;4.90;4.32;;;50.50;1.00;;;;;;5096529;28;20197;-77
2022/08/14 12:29:49;;;;;;;5.43;4.05;;;50.50;1.00;;;;;;5105370;28;20253;-78
2022/08/14 12:32:15;;;;;;;5.20;4.10;;;50.50;1.00;;;;;;5074492;28;20293;-78
2022/08/14 12:34:41;;;;;;;4.38;3.97;;;51.20;1.00;;;;;;5086505;28;20268;-77
2022/08/14 12:37:08;;;;;;;18.05;16.35;;;51.90;1.00;;;;;;5082655;28;20640;-77
2022/08/14 12:39:35;;;;;;;19.13;17.17;;;51.70;1.00;;;;;;5090868;28;20182;-78
2022/08/14 12:42:09;;;;;;;6.38;5.78;;;51.50;1.00;;;;;;5083447;28;20269;-77
2022/08/14 12:44:42;;;;;;;3.88;3.47;;;49.80;1.00;;;;;;5091709;28;20198;-77
2022/08/14 12:47:16;;;;;;;3.97;3.58;;;50.00;1.00;;;;;;5099372;28;20191;-78
2022/08/14 12:49:53;;;;;;;4.03;3.30;;;49.70;1.00;;;;;;5106474;28;20607;-78
2022/08/14 12:52:30;;;;;;;4.97;3.13;;;49.70;1.00;;;;;;5080021;28;20653;-78
2022/08/14 12:55:04;;;;;;;4.97;3.83;;;50.10;1.00;;;;;;5089466;28;20166;-78
2022/08/14 12:57:45;;;;;;;5.32;3.20;;;49.80;1.00;;;;;;5082608;28;20182;-78
2022/08/14 13:00:18;;;;;;;4.50;3.60;;;48.90;1.00;;;;;;5080491;28;20707;-78
2022/08/14 13:02:46;;;;;;;4.72;3.28;;;47.80;1.00;;;;;;5082387;28;20199;-78
2022/08/14 13:05:13;;;;;;;4.78;3.38;;;47.70;1.00;;;;;;5089432;28;20182;-76
2022/08/14 13:07:40;;;;;;;12.07;4.45;;;48.20;1.00;;;;;;5086431;28;20286;-78
2022/08/14 13:10:13;;;;;;;3.63;3.10;;;48.50;1.00;;;;;;5090801;28;20195;-78
2022/08/14 13:12:40;;;;;;;4.68;3.50;;;48.70;1.00;;;;;;5085339;28;20558;-78
2022/08/14 13:15:10;;;;;;;5.35;3.40;;;48.80;1.00;;;;;;5085695;28;20167;-76
2022/08/14 13:17:48;;;;;;;3.47;3.08;;;49.50;1.00;;;;;;5089635;28;20261;-77